sensor_id;sensor_type;location;lat;lon;timestamp;pressure;altitude;pressure_sealevel;temperature;humidity
83152;BME280;73381;58.502;8.624;2023-12-14T00:00:02;100469.66;;;-6.34;79.78
83152;BME280;73381;58.502;8.624;2023-12-14T00:03:04;100545.59;;;-5.94;80.59
83152;BME280;73381;58.502;8.624;2023-12-14T00:06:07;100548.13;;;-5.91;79.73
83152;BME280;73381;58.502;8.624;2023-12-14T00:09:09;100456.84;;;-6.38;78.99
83152;BME280;73381;58.502;8.624;2023-12-14T00:12:11;100545.56;;;-5.93;78.25
83152;BME280;73381;58.502;8.624;2023-12-14T00:15:15;100543.81;;;-5.89;78.97
83152;BME280;73381;58.502;8.624;2023-12-14T00:18:17;100491.06;;;-6.30;79.91
83152;BME280;73381;58.502;8.624;2023-12-14T00:21:19;100545.66;;;-6.01;78.83
83152;BME280;73381;58.502;8.624;2023-12-14T00:24:21;100534.56;;;-6.09;79.50
83152;BME280;73381;58.502;8.624;2023-12-14T00:27:23;100553.31;;;-5.96;79.12
83152;BME280;73381;58.502;8.624;2023-12-14T00:30:27;100571.31;;;-5.94;79.08
83152;BME280;73381;58.502;8.624;2023-12-14T00:33:29;100579.81;;;-5.89;77.97
83152;BME280;73381;58.502;8.624;2023-12-14T00:36:31;100574.75;;;-5.97;78.10
83152;BME280;73381;58.502;8.624;2023-12-14T00:39:33;100555.91;;;-5.97;78.67
83152;BME280;73381;58.502;8.624;2023-12-14T00:42:35;100522.63;;;-6.16;79.40
83152;BME280;73381;58.502;8.624;2023-12-14T00:45:39;100486.81;;;-6.39;79.88
83152;BME280;73381;58.502;8.624;2023-12-14T00:48:40;100562.72;;;-5.90;79.11
83152;BME280;73381;58.502;8.624;2023-12-14T00:51:42;100549.91;;;-5.98;78.80
83152;BME280;73381;58.502;8.624;2023-12-14T00:54:45;100461.16;;;-6.42;79.01
83152;BME280;73381;58.502;8.624;2023-12-14T00:57:47;100545.59;;;-5.94;79.54
83152;BME280;73381;58.502;8.624;2023-12-14T01:00:50;100548.19;;;-5.97;79.54
83152;BME280;73381;58.502;8.624;2023-12-14T01:03:52;100468.00;;;-6.39;79.07
83152;BME280;73381;58.502;8.624;2023-12-14T01:06:54;100540.44;;;-5.90;79.45
83152;BME280;73381;58.502;8.624;2023-12-14T01:09:56;100546.47;;;-5.97;79.39
83152;BME280;73381;58.502;8.624;2023-12-14T01:12:58;100503.75;;;-6.13;79.76
83152;BME280;73381;58.502;8.624;2023-12-14T01:16:02;100523.28;;;-5.92;79.40
83152;BME280;73381;58.502;8.624;2023-12-14T01:19:04;100525.00;;;-5.94;78.84
83152;BME280;73381;58.502;8.624;2023-12-14T01:22:06;100513.97;;;-6.07;78.60
83152;BME280;73381;58.502;8.624;2023-12-14T01:25:08;100462.91;;;-6.45;80.14
83152;BME280;73381;58.502;8.624;2023-12-14T01:28:10;100519.97;;;-6.07;80.34
83152;BME280;73381;58.502;8.624;2023-12-14T01:31:14;100525.97;;;-6.06;79.58
83152;BME280;73381;58.502;8.624;2023-12-14T01:34:17;100455.22;;;-6.50;80.06
83152;BME280;73381;58.502;8.624;2023-12-14T01:37:19;100527.69;;;-6.08;80.40
83152;BME280;73381;58.502;8.624;2023-12-14T01:40:21;100538.00;;;-6.05;79.59
83152;BME280;73381;58.502;8.624;2023-12-14T01:43:23;100535.44;;;-6.10;80.36
83152;BME280;73381;58.502;8.624;2023-12-14T01:46:26;100551.69;;;-6.05;80.50
83152;BME280;73381;58.502;8.624;2023-12-14T01:49:28;100544.75;;;-5.95;78.94
83152;BME280;73381;58.502;8.624;2023-12-14T01:52:30;100542.97;;;-5.91;78.72
83152;BME280;73381;58.502;8.624;2023-12-14T01:55:33;100559.28;;;-5.91;79.16
83152;BME280;73381;58.502;8.624;2023-12-14T01:58:35;100554.06;;;-5.85;78.86
83152;BME280;73381;58.502;8.624;2023-12-14T02:01:39;100554.06;;;-5.86;78.19
83152;BME280;73381;58.502;8.624;2023-12-14T02:04:43;100562.72;;;-5.90;78.18
83152;BME280;73381;58.502;8.624;2023-12-14T02:07:46;100563.59;;;-5.94;78.97
83152;BME280;73381;58.502;8.624;2023-12-14T02:10:48;100550.75;;;-5.97;78.85
83152;BME280;73381;58.502;8.624;2023-12-14T02:13:51;100571.28;;;-5.91;79.11
83152;BME280;73381;58.502;8.624;2023-12-14T02:16:55;100492.03;;;-6.45;78.08
83152;BME280;73381;58.502;8.624;2023-12-14T02:19:57;100410.22;;;-7.04;78.25
83152;BME280;73381;58.502;8.624;2023-12-14T02:23:01;100563.72;;;-6.11;78.24
83152;BME280;73381;58.502;8.624;2023-12-14T02:26:03;100556.09;;;-6.22;79.25
83152;BME280;73381;58.502;8.624;2023-12-14T02:29:06;100562.06;;;-6.15;79.25
83152;BME280;73381;58.502;8.624;2023-12-14T02:32:08;100488.69;;;-6.59;79.30
83152;BME280;73381;58.502;8.624;2023-12-14T02:35:10;100563.75;;;-6.14;80.00
83152;BME280;73381;58.502;8.624;2023-12-14T02:38:14;100568.78;;;-6.01;80.20
83152;BME280;73381;58.502;8.624;2023-12-14T02:41:16;100571.31;;;-5.94;79.23
83152;BME280;73381;58.502;8.624;2023-12-14T02:44:19;100569.56;;;-5.92;79.86
83152;BME280;73381;58.502;8.624;2023-12-14T02:47:22;100486.00;;;-6.42;78.14
83152;BME280;73381;58.502;8.624;2023-12-14T02:50:24;100555.94;;;-6.02;79.72
83152;BME280;73381;58.502;8.624;2023-12-14T02:53:27;100563.56;;;-5.93;79.66
83152;BME280;73381;58.502;8.624;2023-12-14T02:56:29;100557.56;;;-5.92;79.30
83152;BME280;73381;58.502;8.624;2023-12-14T02:59:32;100486.75;;;-6.26;80.01
83152;BME280;73381;58.502;8.624;2023-12-14T03:02:34;100454.28;;;-6.38;78.61
83152;BME280;73381;58.502;8.624;2023-12-14T03:05:37;100513.13;;;-6.05;78.63
83152;BME280;73381;58.502;8.624;2023-12-14T03:08:41;100534.44;;;-5.90;78.75
83152;BME280;73381;58.502;8.624;2023-12-14T03:11:43;100512.25;;;-6.04;78.32
83152;BME280;73381;58.502;8.624;2023-12-14T03:14:45;100537.00;;;-5.92;79.99
83152;BME280;73381;58.502;8.624;2023-12-14T03:17:47;100522.44;;;-5.90;79.28
83152;BME280;73381;58.502;8.624;2023-12-14T03:20:50;100530.09;;;-5.88;79.34
83152;BME280;73381;58.502;8.624;2023-12-14T03:23:54;100533.63;;;-5.97;78.94
83152;BME280;73381;58.502;8.624;2023-12-14T03:26:57;100417.69;;;-6.68;78.83
83152;BME280;73381;58.502;8.624;2023-12-14T03:30:00;100454.34;;;-6.46;78.93
83152;BME280;73381;58.502;8.624;2023-12-14T03:33:01;100518.28;;;-6.08;78.82
83152;BME280;73381;58.502;8.624;2023-12-14T03:36:04;100538.00;;;-6.10;79.05
83152;BME280;73381;58.502;8.624;2023-12-14T03:39:08;100531.09;;;-6.06;79.39
83152;BME280;73381;58.502;8.624;2023-12-14T03:42:10;100543.97;;;-6.05;79.84
83152;BME280;73381;58.502;8.624;2023-12-14T03:45:12;100531.16;;;-6.11;79.29
83152;BME280;73381;58.502;8.624;2023-12-14T03:48:14;100471.44;;;-6.42;79.03
83152;BME280;73381;58.502;8.624;2023-12-14T03:51:19;100536.16;;;-5.95;78.08
83152;BME280;73381;58.502;8.624;2023-12-14T03:54:23;100542.09;;;-5.87;79.90
83152;BME280;73381;58.502;8.624;2023-12-14T03:57:25;100545.50;;;-5.85;78.73
83152;BME280;73381;58.502;8.624;2023-12-14T04:00:26;100538.66;;;-5.88;78.27
83152;BME280;73381;58.502;8.624;2023-12-14T04:03:29;100524.16;;;-5.93;78.42
83152;BME280;73381;58.502;8.624;2023-12-14T04:06:31;100531.94;;;-6.01;78.46
83152;BME280;73381;58.502;8.624;2023-12-14T04:09:34;100537.06;;;-6.00;78.62
83152;BME280;73381;58.502;8.624;2023-12-14T04:12:37;100536.22;;;-6.00;79.12
83152;BME280;73381;58.502;8.624;2023-12-14T04:15:39;100456.94;;;-6.52;79.46
83152;BME280;73381;58.502;8.624;2023-12-14T04:18:41;100519.94;;;-6.01;80.26
83152;BME280;73381;58.502;8.624;2023-12-14T04:21:44;100527.63;;;-5.97;79.92
83152;BME280;73381;58.502;8.624;2023-12-14T04:24:47;100478.97;;;-6.20;79.95
83152;BME280;73381;58.502;8.624;2023-12-14T04:27:50;100521.50;;;-5.87;79.76
83152;BME280;73381;58.502;8.624;2023-12-14T04:30:52;100531.69;;;-5.75;78.58
83152;BME280;73381;58.502;8.624;2023-12-14T04:33:55;100450.81;;;-6.33;79.36
83152;BME280;73381;58.502;8.624;2023-12-14T04:36:57;100529.28;;;-5.90;80.15
83152;BME280;73381;58.502;8.624;2023-12-14T04:40:00;100531.06;;;-6.00;79.46
83152;BME280;73381;58.502;8.624;2023-12-14T04:43:02;100527.69;;;-6.05;80.83
83152;BME280;73381;58.502;8.624;2023-12-14T04:46:05;100522.50;;;-6.01;80.13
83152;BME280;73381;58.502;8.624;2023-12-14T04:49:07;100528.44;;;-5.91;79.76
83152;BME280;73381;58.502;8.624;2023-12-14T04:52:09;100507.03;;;-5.96;79.53
83152;BME280;73381;58.502;8.624;2023-12-14T04:55:13;100507.13;;;-6.04;80.29
83152;BME280;73381;58.502;8.624;2023-12-14T04:58:15;100518.13;;;-5.92;80.20
83152;BME280;73381;58.502;8.624;2023-12-14T05:01:17;100536.03;;;-5.83;80.76
83152;BME280;73381;58.502;8.624;2023-12-14T05:04:19;100533.28;;;-5.65;80.03
83152;BME280;73381;58.502;8.624;2023-12-14T05:07:22;100531.69;;;-5.78;80.94
83152;BME280;73381;58.502;8.624;2023-12-14T05:10:25;100546.28;;;-5.79;81.19
83152;BME280;73381;58.502;8.624;2023-12-14T05:13:27;100547.13;;;-5.77;82.09
83152;BME280;73381;58.502;8.624;2023-12-14T05:16:30;100542.75;;;-5.69;80.98
83152;BME280;73381;58.502;8.624;2023-12-14T05:19:32;100547.00;;;-5.63;80.42
83152;BME280;73381;58.502;8.624;2023-12-14T05:22:38;100539.13;;;-5.49;79.74
83152;BME280;73381;58.502;8.624;2023-12-14T05:25:42;100393.50;;;-6.42;80.38
83152;BME280;73381;58.502;8.624;2023-12-14T05:28:45;100545.19;;;-5.55;81.19
83152;BME280;73381;58.502;8.624;2023-12-14T05:31:47;100536.59;;;-5.52;81.26
83152;BME280;73381;58.502;8.624;2023-12-14T05:34:49;100542.56;;;-5.49;80.81
83152;BME280;73381;58.502;8.624;2023-12-14T05:37:51;100540.00;;;-5.52;80.92
83152;BME280;73381;58.502;8.624;2023-12-14T05:40:54;100550.41;;;-5.61;81.21
83152;BME280;73381;58.502;8.624;2023-12-14T05:43:57;100526.50;;;-5.72;80.83
83152;BME280;73381;58.502;8.624;2023-12-14T05:46:59;100552.22;;;-5.72;80.99
83152;BME280;73381;58.502;8.624;2023-12-14T05:50:09;100548.81;;;-5.74;81.47
83152;BME280;73381;58.502;8.624;2023-12-14T05:53:13;100482.38;;;-6.17;82.23
83152;BME280;73381;58.502;8.624;2023-12-14T05:56:17;100473.03;;;-6.27;81.78
83152;BME280;73381;58.502;8.624;2023-12-14T05:59:21;100553.06;;;-5.70;81.91
83152;BME280;73381;58.502;8.624;2023-12-14T06:02:24;100549.56;;;-5.61;81.92
83152;BME280;73381;58.502;8.624;2023-12-14T06:05:27;100529.91;;;-5.70;81.16
83152;BME280;73381;58.502;8.624;2023-12-14T06:08:30;100553.94;;;-5.71;81.56
83152;BME280;73381;58.502;8.624;2023-12-14T06:11:33;100474.63;;;-6.14;82.87
83152;BME280;73381;58.502;8.624;2023-12-14T06:14:37;100551.28;;;-5.65;82.02
83152;BME280;73381;58.502;8.624;2023-12-14T06:17:39;100559.00;;;-5.65;82.54
83152;BME280;73381;58.502;8.624;2023-12-14T06:20:42;100562.28;;;-5.49;82.54
83152;BME280;73381;58.502;8.624;2023-12-14T06:23:44;100545.13;;;-5.46;81.80
83152;BME280;73381;58.502;8.624;2023-12-14T06:26:52;100561.31;;;-5.39;82.12
83152;BME280;73381;58.502;8.624;2023-12-14T06:29:54;100553.75;;;-5.54;82.13
83152;BME280;73381;58.502;8.624;2023-12-14T06:32:59;100565.84;;;-5.61;81.34
83152;BME280;73381;58.502;8.624;2023-12-14T06:36:03;100572.72;;;-5.64;81.95
83152;BME280;73381;58.502;8.624;2023-12-14T06:39:06;100560.72;;;-5.64;82.82
83152;BME280;73381;58.502;8.624;2023-12-14T06:42:10;100565.84;;;-5.64;82.22
83152;BME280;73381;58.502;8.624;2023-12-14T06:45:15;100560.72;;;-5.64;83.22
83152;BME280;73381;58.502;8.624;2023-12-14T06:48:17;100490.78;;;-6.00;82.36
83152;BME280;73381;58.502;8.624;2023-12-14T06:51:22;100560.56;;;-5.47;82.10
83152;BME280;73381;58.502;8.624;2023-12-14T06:54:25;100567.41;;;-5.46;83.17
83152;BME280;73381;58.502;8.624;2023-12-14T06:57:29;100557.09;;;-5.43;81.93
83152;BME280;73381;58.502;8.624;2023-12-14T07:00:31;100546.84;;;-5.51;82.85
83152;BME280;73381;58.502;8.624;2023-12-14T07:03:33;100552.03;;;-5.52;82.23
83152;BME280;73381;58.502;8.624;2023-12-14T07:06:37;100543.50;;;-5.57;82.23
83152;BME280;73381;58.502;8.624;2023-12-14T07:09:40;100540.84;;;-5.51;82.55
83152;BME280;73381;58.502;8.624;2023-12-14T07:12:46;100486.28;;;-5.81;81.64
83152;BME280;73381;58.502;8.624;2023-12-14T07:15:49;100424.91;;;-6.10;83.35
83152;BME280;73381;58.502;8.624;2023-12-14T07:18:52;100548.44;;;-5.34;82.42
83152;BME280;73381;58.502;8.624;2023-12-14T07:21:54;100478.63;;;-5.85;82.26
83152;BME280;73381;58.502;8.624;2023-12-14T07:24:59;100513.56;;;-5.64;83.65
83152;BME280;73381;58.502;8.624;2023-12-14T07:28:03;100534.03;;;-5.54;83.50
83152;BME280;73381;58.502;8.624;2023-12-14T07:31:06;100535.84;;;-5.62;83.95
83152;BME280;73381;58.502;8.624;2023-12-14T07:34:09;100537.50;;;-5.58;84.01
83152;BME280;73381;58.502;8.624;2023-12-14T07:37:12;100528.00;;;-5.53;84.02
83152;BME280;73381;58.502;8.624;2023-12-14T07:40:14;100528.91;;;-5.57;83.77
83152;BME280;73381;58.502;8.624;2023-12-14T07:43:19;100467.69;;;-6.06;83.02
83152;BME280;73381;58.502;8.624;2023-12-14T07:46:23;100535.81;;;-5.60;83.10
83152;BME280;73381;58.502;8.624;2023-12-14T07:49:25;100541.84;;;-5.61;84.11
83152;BME280;73381;58.502;8.624;2023-12-14T07:52:28;100527.25;;;-5.64;84.28
83152;BME280;73381;58.502;8.624;2023-12-14T07:55:31;100519.53;;;-5.61;83.43
83152;BME280;73381;58.502;8.624;2023-12-14T07:58:36;100528.00;;;-5.53;83.86
83152;BME280;73381;58.502;8.624;2023-12-14T08:01:39;100530.56;;;-5.48;84.04
83152;BME280;73381;58.502;8.624;2023-12-14T08:04:43;100498.97;;;-5.64;83.85
83152;BME280;73381;58.502;8.624;2023-12-14T08:07:46;100521.88;;;-5.40;82.78
83152;BME280;73381;58.502;8.624;2023-12-14T08:10:49;100527.06;;;-5.43;82.81
83152;BME280;73381;58.502;8.624;2023-12-14T08:13:54;100529.69;;;-5.47;83.50
83152;BME280;73381;58.502;8.624;2023-12-14T08:16:57;100456.28;;;-5.80;82.84
83152;BME280;73381;58.502;8.624;2023-12-14T08:20:00;100521.09;;;-5.46;83.62
83152;BME280;73381;58.502;8.624;2023-12-14T08:23:03;100529.53;;;-5.35;83.96
83152;BME280;73381;58.502;8.624;2023-12-14T08:26:07;100466.59;;;-5.83;83.04
83152;BME280;73381;58.502;8.624;2023-12-14T08:29:11;100545.91;;;-5.41;83.29
83152;BME280;73381;58.502;8.624;2023-12-14T08:32:13;100543.38;;;-5.44;82.89
83152;BME280;73381;58.502;8.624;2023-12-14T08:35:15;100528.91;;;-5.57;83.78
83152;BME280;73381;58.502;8.624;2023-12-14T08:38:19;100548.28;;;-5.24;83.84
83152;BME280;73381;58.502;8.624;2023-12-14T08:41:22;100555.13;;;-5.21;83.37
83152;BME280;73381;58.502;8.624;2023-12-14T08:44:27;100556.72;;;-5.10;83.61
83152;BME280;73381;58.502;8.624;2023-12-14T08:47:30;100560.13;;;-5.06;82.77
83152;BME280;73381;58.502;8.624;2023-12-14T08:50:32;100556.72;;;-5.11;83.21
83152;BME280;73381;58.502;8.624;2023-12-14T08:53:35;100570.44;;;-5.09;83.11
83152;BME280;73381;58.502;8.624;2023-12-14T08:56:37;100580.88;;;-5.21;83.17
83152;BME280;73381;58.502;8.624;2023-12-14T08:59:41;100581.75;;;-5.24;83.18
83152;BME280;73381;58.502;8.624;2023-12-14T09:02:47;100578.38;;;-5.27;84.27
83152;BME280;73381;58.502;8.624;2023-12-14T09:05:50;100574.88;;;-5.23;84.47
83152;BME280;73381;58.502;8.624;2023-12-14T09:08:52;100501.63;;;-5.70;83.98
83152;BME280;73381;58.502;8.624;2023-12-14T09:11:55;100579.16;;;-5.19;83.94
83152;BME280;73381;58.502;8.624;2023-12-14T09:14:59;100586.69;;;-5.02;83.46
83152;BME280;73381;58.502;8.624;2023-12-14T09:18:02;100575.56;;;-5.08;83.83
83152;BME280;73381;58.502;8.624;2023-12-14T09:21:05;100582.34;;;-4.99;83.49
83152;BME280;73381;58.502;8.624;2023-12-14T09:24:07;100582.28;;;-4.94;83.81
83152;BME280;73381;58.502;8.624;2023-12-14T09:27:14;100590.72;;;-4.83;83.54
83152;BME280;73381;58.502;8.624;2023-12-14T09:30:19;100584.66;;;-4.79;84.34
83152;BME280;73381;58.502;8.624;2023-12-14T09:33:22;100550.47;;;-4.89;82.96
83152;BME280;73381;58.502;8.624;2023-12-14T09:36:26;100575.09;;;-4.69;82.61
83152;BME280;73381;58.502;8.624;2023-12-14T09:39:28;100591.44;;;-4.70;82.79
83152;BME280;73381;58.502;8.624;2023-12-14T09:42:37;100583.72;;;-4.70;81.63
83152;BME280;73381;58.502;8.624;2023-12-14T09:45:43;100599.13;;;-4.67;82.72
83152;BME280;73381;58.502;8.624;2023-12-14T09:48:50;100593.13;;;-4.68;81.86
83152;BME280;73381;58.502;8.624;2023-12-14T09:51:57;100575.22;;;-4.79;82.26
83152;BME280;73381;58.502;8.624;2023-12-14T09:54:59;100588.94;;;-4.76;83.22
83152;BME280;73381;58.502;8.624;2023-12-14T09:58:03;100567.59;;;-4.86;82.50
83152;BME280;73381;58.502;8.624;2023-12-14T10:04:37;100565.97;;;-4.92;82.54
83152;BME280;73381;58.502;8.624;2023-12-14T10:07:44;100574.50;;;-4.88;82.99
83152;BME280;73381;58.502;8.624;2023-12-14T10:10:48;100585.53;;;-4.77;83.05
83152;BME280;73381;58.502;8.624;2023-12-14T10:13:52;100587.25;;;-4.81;83.37
83152;BME280;73381;58.502;8.624;2023-12-14T10:16:55;100583.81;;;-4.76;82.27
83152;BME280;73381;58.502;8.624;2023-12-14T10:20:07;100580.34;;;-4.75;82.41
83152;BME280;73381;58.502;8.624;2023-12-14T10:23:10;100575.16;;;-4.72;83.52
83152;BME280;73381;58.502;8.624;2023-12-14T10:26:12;100573.25;;;-4.58;81.88
83152;BME280;73381;58.502;8.624;2023-12-14T10:29:15;100554.53;;;-4.71;81.85
83152;BME280;73381;58.502;8.624;2023-12-14T10:32:18;100581.84;;;-4.59;81.91
83152;BME280;73381;58.502;8.624;2023-12-14T10:35:25;100585.13;;;-4.46;81.99
83152;BME280;73381;58.502;8.624;2023-12-14T10:38:29;100577.25;;;-4.39;82.08
83152;BME280;73381;58.502;8.624;2023-12-14T10:41:36;100584.97;;;-4.37;82.11
83152;BME280;73381;58.502;8.624;2023-12-14T10:44:40;100602.78;;;-4.19;82.05
83152;BME280;73381;58.502;8.624;2023-12-14T10:48:04;100524.28;;;-4.58;81.13
83152;BME280;73381;58.502;8.624;2023-12-14T10:51:10;100500.50;;;-4.77;81.15
83152;BME280;73381;58.502;8.624;2023-12-14T10:54:15;100601.91;;;-4.18;80.79
83152;BME280;73381;58.502;8.624;2023-12-14T10:57:19;100590.88;;;-4.29;81.94
83152;BME280;73381;58.502;8.624;2023-12-14T11:00:23;100605.34;;;-4.18;80.87
83152;BME280;73381;58.502;8.624;2023-12-14T11:03:32;100606.34;;;-4.28;81.88
83152;BME280;73381;58.502;8.624;2023-12-14T11:06:40;100604.53;;;-4.23;81.25
83152;BME280;73381;58.502;8.624;2023-12-14T11:09:45;100613.09;;;-4.19;82.34
83152;BME280;73381;58.502;8.624;2023-12-14T11:12:56;100623.53;;;-4.28;82.17
83152;BME280;73381;58.502;8.624;2023-12-14T11:16:02;100614.00;;;-4.22;81.48
83152;BME280;73381;58.502;8.624;2023-12-14T11:19:24;100609.72;;;-4.24;81.22
83152;BME280;73381;58.502;8.624;2023-12-14T11:22:30;100610.66;;;-4.30;82.51
83152;BME280;73381;58.502;8.624;2023-12-14T11:25:32;100615.00;;;-4.33;82.74
83152;BME280;73381;58.502;8.624;2023-12-14T11:28:48;100613.22;;;-4.28;82.75
83152;BME280;73381;58.502;8.624;2023-12-14T11:31:52;100624.28;;;-4.20;81.17
83152;BME280;73381;58.502;8.624;2023-12-14T11:34:57;100573.91;;;-4.44;82.48
83152;BME280;73381;58.502;8.624;2023-12-14T11:38:01;100618.97;;;-4.11;81.03
83152;BME280;73381;58.502;8.624;2023-12-14T11:41:05;100612.03;;;-4.06;82.09
83152;BME280;73381;58.502;8.624;2023-12-14T11:44:08;100606.81;;;-4.01;80.43
83152;BME280;73381;58.502;8.624;2023-12-14T11:47:14;100611.00;;;-3.96;81.18
83152;BME280;73381;58.502;8.624;2023-12-14T11:50:17;100612.81;;;-4.01;80.78
83152;BME280;73381;58.502;8.624;2023-12-14T11:53:23;100613.63;;;-3.97;81.63
83152;BME280;73381;58.502;8.624;2023-12-14T11:56:26;100610.34;;;-4.08;81.70
83152;BME280;73381;58.502;8.624;2023-12-14T11:59:32;100618.72;;;-3.94;80.65
83152;BME280;73381;58.502;8.624;2023-12-14T12:02:34;100619.72;;;-4.03;81.78
83152;BME280;73381;58.502;8.624;2023-12-14T12:05:38;100611.97;;;-4.01;80.47
83152;BME280;73381;58.502;8.624;2023-12-14T12:08:45;100610.28;;;-4.04;82.19
83152;BME280;73381;58.502;8.624;2023-12-14T12:11:49;100608.63;;;-4.06;82.60
83152;BME280;73381;58.502;8.624;2023-12-14T12:14:52;100597.50;;;-4.11;82.08
83152;BME280;73381;58.502;8.624;2023-12-14T12:17:55;100576.03;;;-4.13;81.50
83152;BME280;73381;58.502;8.624;2023-12-14T12:20:58;100596.50;;;-4.01;81.02
83152;BME280;73381;58.502;8.624;2023-12-14T12:24:04;100595.53;;;-3.96;82.08
83152;BME280;73381;58.502;8.624;2023-12-14T12:27:27;100599.00;;;-3.98;82.05
83152;BME280;73381;58.502;8.624;2023-12-14T12:30:30;100594.69;;;-3.98;82.37
83152;BME280;73381;58.502;8.624;2023-12-14T12:33:33;100596.50;;;-4.01;82.36
83152;BME280;73381;58.502;8.624;2023-12-14T12:36:37;100602.56;;;-4.05;81.73
83152;BME280;73381;58.502;8.624;2023-12-14T12:39:43;100600.91;;;-4.08;81.47
83152;BME280;73381;58.502;8.624;2023-12-14T12:42:48;100606.09;;;-4.11;82.55
83152;BME280;73381;58.502;8.624;2023-12-14T12:45:51;100594.16;;;-4.18;82.57
83152;BME280;73381;58.502;8.624;2023-12-14T12:48:55;100596.72;;;-4.16;81.80
83152;BME280;73381;58.502;8.624;2023-12-14T12:51:58;100592.25;;;-4.05;81.82
83152;BME280;73381;58.502;8.624;2023-12-14T12:55:07;100585.28;;;-4.00;82.12
83152;BME280;73381;58.502;8.624;2023-12-14T12:58:10;100579.34;;;-4.04;81.33
83152;BME280;73381;58.502;8.624;2023-12-14T13:01:14;100574.94;;;-3.99;82.28
83152;BME280;73381;58.502;8.624;2023-12-14T13:04:19;100551.88;;;-4.06;82.74
83152;BME280;73381;58.502;8.624;2023-12-14T13:07:26;100564.53;;;-3.94;82.23
83152;BME280;73381;58.502;8.624;2023-12-14T13:10:31;100558.31;;;-3.81;80.44
83152;BME280;73381;58.502;8.624;2023-12-14T13:13:37;100554.03;;;-3.82;81.26
83152;BME280;73381;58.502;8.624;2023-12-14T13:16:42;100554.13;;;-3.86;81.19
83152;BME280;73381;58.502;8.624;2023-12-14T13:19:47;100541.53;;;-4.05;81.23
83152;BME280;73381;58.502;8.624;2023-12-14T13:22:50;100561.25;;;-4.02;82.29
83152;BME280;73381;58.502;8.624;2023-12-14T13:25:55;100563.97;;;-4.11;82.72
83152;BME280;73381;58.502;8.624;2023-12-14T13:28:58;100562.25;;;-4.12;83.33
83152;BME280;73381;58.502;8.624;2023-12-14T13:32:03;100551.19;;;-4.18;81.44
83152;BME280;73381;58.502;8.624;2023-12-14T13:35:06;100549.44;;;-4.15;81.70
83152;BME280;73381;58.502;8.624;2023-12-14T13:38:11;100552.25;;;-4.31;83.33
83152;BME280;73381;58.502;8.624;2023-12-14T13:41:16;100572.56;;;-4.12;82.22
83152;BME280;73381;58.502;8.624;2023-12-14T13:44:21;100566.53;;;-4.10;82.09
83152;BME280;73381;58.502;8.624;2023-12-14T13:47:24;100586.28;;;-4.07;82.01
83152;BME280;73381;58.502;8.624;2023-12-14T13:50:35;100588.00;;;-4.09;82.11
83152;BME280;73381;58.502;8.624;2023-12-14T13:53:38;100583.78;;;-4.13;82.71
83152;BME280;73381;58.502;8.624;2023-12-14T13:56:42;100588.22;;;-4.22;82.79
83152;BME280;73381;58.502;8.624;2023-12-14T13:59:45;100571.88;;;-4.24;82.13
83152;BME280;73381;58.502;8.624;2023-12-14T14:02:48;100588.88;;;-4.10;81.70
83152;BME280;73381;58.502;8.624;2023-12-14T14:05:51;100573.50;;;-4.16;82.02
83152;BME280;73381;58.502;8.624;2023-12-14T14:08:54;100585.69;;;-4.28;82.12
83152;BME280;73381;58.502;8.624;2023-12-14T14:11:58;100591.78;;;-4.32;82.70
83152;BME280;73381;58.502;8.624;2023-12-14T14:15:00;100459.88;;;-5.23;83.25
83152;BME280;73381;58.502;8.624;2023-12-14T14:18:04;100592.84;;;-4.46;83.68
83152;BME280;73381;58.502;8.624;2023-12-14T14:21:07;100597.25;;;-4.55;83.37
83152;BME280;73381;58.502;8.624;2023-12-14T14:24:09;100590.31;;;-4.51;83.18
83152;BME280;73381;58.502;8.624;2023-12-14T14:27:15;100583.44;;;-4.49;83.89
83152;BME280;73381;58.502;8.624;2023-12-14T14:30:20;100576.47;;;-4.44;83.69
83152;BME280;73381;58.502;8.624;2023-12-14T14:33:23;100568.91;;;-4.55;83.28
83152;BME280;73381;58.502;8.624;2023-12-14T14:36:26;100582.59;;;-4.50;84.01
83152;BME280;73381;58.502;8.624;2023-12-14T14:39:30;100511.69;;;-4.80;83.35
83152;BME280;73381;58.502;8.624;2023-12-14T14:42:35;100595.31;;;-4.39;82.20
83152;BME280;73381;58.502;8.624;2023-12-14T14:45:38;100592.88;;;-4.48;82.73
83152;BME280;73381;58.502;8.624;2023-12-14T14:48:43;100592.13;;;-4.56;83.97
83152;BME280;73381;58.502;8.624;2023-12-14T14:51:46;100592.16;;;-4.59;83.69
83152;BME280;73381;58.502;8.624;2023-12-14T14:54:48;100593.09;;;-4.63;83.96
83152;BME280;73381;58.502;8.624;2023-12-14T14:57:54;100593.97;;;-4.67;84.64
83152;BME280;73381;58.502;8.624;2023-12-14T15:00:56;100605.09;;;-4.62;83.50
83152;BME280;73381;58.502;8.624;2023-12-14T15:04:00;100606.78;;;-4.61;83.39
83152;BME280;73381;58.502;8.624;2023-12-14T15:07:03;100611.69;;;-4.41;83.70
83152;BME280;73381;58.502;8.624;2023-12-14T15:10:07;100541.97;;;-4.97;83.26
83152;BME280;73381;58.502;8.624;2023-12-14T15:13:11;100555.53;;;-4.84;84.48
83152;BME280;73381;58.502;8.624;2023-12-14T15:16:14;100633.16;;;-4.41;83.60
83152;BME280;73381;58.502;8.624;2023-12-14T15:19:16;100633.28;;;-4.52;83.60
83152;BME280;73381;58.502;8.624;2023-12-14T15:22:20;100624.75;;;-4.55;83.56
83152;BME280;73381;58.502;8.624;2023-12-14T15:25:22;100565.19;;;-5.00;83.67
83152;BME280;73381;58.502;8.624;2023-12-14T15:28:27;100603.50;;;-4.74;85.08
83152;BME280;73381;58.502;8.624;2023-12-14T15:31:30;100634.28;;;-4.62;84.83
83152;BME280;73381;58.502;8.624;2023-12-14T15:34:33;100639.44;;;-4.65;85.27
83152;BME280;73381;58.502;8.624;2023-12-14T15:37:39;100630.03;;;-4.66;84.93
83152;BME280;73381;58.502;8.624;2023-12-14T15:40:42;100633.44;;;-4.65;84.00
83152;BME280;73381;58.502;8.624;2023-12-14T15:43:46;100638.50;;;-4.56;83.55
83152;BME280;73381;58.502;8.624;2023-12-14T15:46:50;100635.75;;;-4.42;83.43
83152;BME280;73381;58.502;8.624;2023-12-14T15:49:53;100644.38;;;-4.45;84.02
83152;BME280;73381;58.502;8.624;2023-12-14T15:52:57;100639.34;;;-4.56;84.02
83152;BME280;73381;58.502;8.624;2023-12-14T15:56:00;100628.94;;;-4.46;83.96
83152;BME280;73381;58.502;8.624;2023-12-14T15:59:04;100597.53;;;-4.76;83.89
83152;BME280;73381;58.502;8.624;2023-12-14T16:02:07;100637.66;;;-4.57;84.00